Time;durP1;ratioP1;P1;durP2;ratioP2;P2;SDS_P1;SDS_P2;PMS_P1;PMS_P2;Temp;Humidity;BMP_temperature;BMP_pressure;BME280_temperature;BME280_humidity;BME280_pressure;Samples;Min_cycle;Max_cycle;Signal;HPM_P1;HPM_P2
2021/03/28 00:00:50;;;;;;;5.13;3.07;;;5.10;99.90;;;;;;4997019;28;20190;-78
2021/03/28 00:03:30;;;;;;;5.63;2.33;;;5.00;99.90;;;;;;4995955;28;20180;-78
2021/03/28 00:06:14;;;;;;;5.93;3.00;;;5.00;99.90;;;;;;4996828;28;20206;-78
2021/03/28 00:08:44;;;;;;;5.23;3.03;;;5.00;99.90;;;;;;4995878;28;20189;-78
2021/03/28 00:11:19;;;;;;;7.60;3.23;;;4.90;99.90;;;;;;4999928;28;20322;-78
2021/03/28 00:13:54;;;;;;;7.63;3.73;;;4.90;99.90;;;;;;5000462;28;20179;-78
2021/03/28 00:16:25;;;;;;;5.27;2.80;;;4.70;99.90;;;;;;4999602;28;20203;-79
2021/03/28 00:18:59;;;;;;;3.50;2.27;;;4.70;99.90;;;;;;5001353;28;20165;-78
2021/03/28 00:21:31;;;;;;;4.70;2.60;;;4.60;99.90;;;;;;4999498;28;20191;-78
2021/03/28 00:24:12;;;;;;;6.13;2.23;;;4.50;99.90;;;;;;4999818;28;20238;-78
2021/03/28 00:26:42;;;;;;;3.37;2.10;;;4.50;99.90;;;;;;5000312;28;20982;-78
2021/03/28 00:29:24;;;;;;;7.33;1.90;;;4.50;99.90;;;;;;4999469;28;20423;-78
2021/03/28 00:32:05;;;;;;;4.00;2.20;;;4.50;99.90;;;;;;4999413;28;20203;-78
2021/03/28 00:34:40;;;;;;;5.03;2.30;;;4.50;99.90;;;;;;4997625;28;20702;-78
2021/03/28 00:37:09;;;;;;;4.73;2.20;;;4.50;99.90;;;;;;4999963;28;20203;-78
2021/03/28 00:40:01;;;;;;;4.97;2.60;;;4.50;99.90;;;;;;5001419;28;20191;-78
2021/03/28 00:42:40;;;;;;;4.07;2.13;;;4.50;99.90;;;;;;5003319;28;20187;-79
2021/03/28 00:45:28;;;;;;;5.03;2.40;;;4.50;99.90;;;;;;5002136;28;20580;-78
2021/03/28 00:48:09;;;;;;;4.10;2.17;;;4.40;99.90;;;;;;5003946;28;20214;-78
2021/03/28 00:50:58;;;;;;;3.13;1.93;;;4.50;99.90;;;;;;5005527;28;20539;-78
2021/03/28 00:53:31;;;;;;;2.87;2.30;;;4.50;99.90;;;;;;5001480;28;20218;-78
2021/03/28 00:56:05;;;;;;;4.90;2.07;;;4.40;99.90;;;;;;5005551;28;20207;-78
2021/03/28 00:59:03;;;;;;;3.87;2.40;;;4.40;99.90;;;;;;5004223;28;20211;-79
2021/03/28 01:02:06;;;;;;;2.80;1.97;;;4.40;99.90;;;;;;5003670;28;20169;-78
2021/03/28 01:05:00;;;;;;;2.70;2.00;;;4.40;99.90;;;;;;5002928;28;20427;-78
2021/03/28 01:07:32;;;;;;;3.00;1.73;;;4.40;99.90;;;;;;5003005;28;20415;-78
2021/03/28 01:10:42;;;;;;;2.80;2.30;;;4.40;99.90;;;;;;5003298;28;20184;-78
2021/03/28 01:13:44;;;;;;;4.00;2.07;;;4.40;99.90;;;;;;4946065;29;20182;-78
2021/03/28 01:16:35;;;;;;;2.90;2.17;;;4.40;99.90;;;;;;4961566;28;20526;-78
2021/03/28 01:19:35;;;;;;;4.57;1.80;;;4.30;99.90;;;;;;4994317;28;20427;-78
2021/03/28 01:22:30;;;;;;;2.90;2.10;;;4.20;99.90;;;;;;5003265;28;20419;-78
2021/03/28 01:25:19;;;;;;;4.20;1.90;;;4.30;99.90;;;;;;4995522;28;20198;-78
2021/03/28 01:28:13;;;;;;;2.37;1.63;;;4.30;99.90;;;;;;5002234;28;20917;-78
2021/03/28 01:30:44;;;;;;;5.67;2.20;;;4.30;99.90;;;;;;5002309;28;20200;-78
2021/03/28 01:33:41;;;;;;;2.27;1.90;;;4.30;99.90;;;;;;5001144;28;20425;-78
2021/03/28 01:36:12;;;;;;;2.63;1.90;;;4.20;99.90;;;;;;5002370;28;20522;-78
2021/03/28 01:39:21;;;;;;;3.53;2.20;;;4.20;99.90;;;;;;5002785;28;20417;-78
2021/03/28 01:42:00;;;;;;;4.47;1.70;;;4.20;99.90;;;;;;5002158;28;20435;-78
2021/03/28 01:44:52;;;;;;;2.23;2.03;;;4.10;99.90;;;;;;5001461;28;20197;-78
2021/03/28 01:47:36;;;;;;;2.30;2.10;;;4.00;99.90;;;;;;5001650;28;20423;-78
2021/03/28 01:50:27;;;;;;;3.23;2.07;;;4.00;99.90;;;;;;5001814;28;20200;-78
2021/03/28 01:53:13;;;;;;;7.60;1.93;;;4.00;99.90;;;;;;5001142;28;20171;-78
2021/03/28 01:55:53;;;;;;;4.23;2.30;;;4.00;99.90;;;;;;5001867;28;20196;-78
2021/03/28 01:58:48;;;;;;;5.37;2.13;;;4.00;99.90;;;;;;5000043;28;20434;-78
2021/03/28 02:01:17;;;;;;;3.63;1.77;;;4.00;99.90;;;;;;5001758;28;20168;-78
2021/03/28 02:04:05;;;;;;;3.30;1.63;;;4.00;99.90;;;;;;5002142;28;20183;-78
2021/03/28 02:06:40;;;;;;;2.27;1.70;;;3.90;99.90;;;;;;5000696;28;20439;-78
2021/03/28 02:09:06;;;;;;;3.57;1.87;;;3.90;99.90;;;;;;5002212;28;20209;-78
2021/03/28 02:12:04;;;;;;;2.37;2.07;;;3.90;99.90;;;;;;5002025;28;20459;-78
2021/03/28 02:14:42;;;;;;;4.53;2.10;;;3.90;99.90;;;;;;5002368;28;20269;-78
2021/03/28 02:17:21;;;;;;;2.67;1.87;;;3.90;99.90;;;;;;5002359;28;20919;-78
2021/03/28 02:20:25;;;;;;;4.50;2.07;;;3.80;99.90;;;;;;5001576;28;20469;-78
2021/03/28 02:23:09;;;;;;;3.70;1.90;;;3.80;99.90;;;;;;4980404;28;20939;-78
2021/03/28 02:25:56;;;;;;;5.13;1.83;;;3.80;99.90;;;;;;5002972;28;20426;-78
2021/03/28 02:28:46;;;;;;;5.60;2.20;;;3.70;99.90;;;;;;5002983;28;20399;-78
2021/03/28 02:31:33;;;;;;;2.93;1.70;;;3.70;99.90;;;;;;5002673;28;20469;-78
2021/03/28 02:34:14;;;;;;;4.73;2.10;;;3.70;99.90;;;;;;5002603;28;20403;-78
2021/03/28 02:36:56;;;;;;;3.37;1.40;;;3.60;99.90;;;;;;5003070;28;20430;-78
2021/03/28 02:39:48;;;;;;;4.50;2.03;;;3.60;99.90;;;;;;5002739;28;20195;-78
2021/03/28 02:42:17;;;;;;;5.63;2.20;;;3.60;99.90;;;;;;5002103;28;20435;-78
2021/03/28 02:45:21;;;;;;;3.77;1.80;;;3.60;99.90;;;;;;5000583;28;20179;-78
2021/03/28 02:48:24;;;;;;;3.83;1.90;;;3.50;99.90;;;;;;5001515;28;20426;-78
2021/03/28 02:51:15;;;;;;;3.87;2.13;;;3.50;99.90;;;;;;5003465;28;20458;-78
2021/03/28 02:54:05;;;;;;;2.60;1.90;;;3.50;99.90;;;;;;5004760;28;20482;-78
2021/03/28 02:57:06;;;;;;;11.10;6.20;;;3.40;99.90;;;;;;5004051;28;20454;-78
2021/03/28 03:00:00;;;;;;;27.67;12.37;;;3.30;99.90;;;;;;5003339;28;20838;-78
2021/03/28 03:03:03;;;;;;;11.53;5.60;;;3.30;99.90;;;;;;5003587;28;20407;-78
2021/03/28 03:05:55;;;;;;;27.37;11.10;;;3.20;99.90;;;;;;5004223;28;20472;-79
2021/03/28 03:08:36;;;;;;;36.27;14.50;;;3.20;99.90;;;;;;5008977;28;20422;-78
2021/03/28 03:11:10;;;;;;;20.33;9.13;;;3.00;99.90;;;;;;5004264;28;20462;-78
2021/03/28 03:14:01;;;;;;;27.27;14.67;;;3.00;99.90;;;;;;5003814;28;20438;-78
2021/03/28 03:16:45;;;;;;;23.90;12.10;;;2.90;99.90;;;;;;4986845;28;20438;-78
2021/03/28 03:19:13;;;;;;;31.97;17.93;;;2.80;99.90;;;;;;5003796;28;20434;-78
2021/03/28 03:21:45;;;;;;;7.83;5.03;;;2.80;99.90;;;;;;5005123;28;20502;-78
2021/03/28 03:24:35;;;;;;;6.33;3.10;;;2.70;99.90;;;;;;5001649;28;20434;-78
2021/03/28 03:27:34;;;;;;;3.10;1.77;;;2.70;99.90;;;;;;4997501;28;20207;-78
2021/03/28 03:30:12;;;;;;;2.17;1.77;;;2.60;99.90;;;;;;4997545;28;20419;-78
2021/03/28 03:33:26;;;;;;;1.90;1.57;;;2.50;99.90;;;;;;4999137;28;20413;-78
2021/03/28 03:36:04;;;;;;;2.47;1.50;;;2.40;99.90;;;;;;4964849;28;20497;-78
2021/03/28 03:39:07;;;;;;;3.43;1.53;;;2.40;99.90;;;;;;4997943;28;20469;-78
2021/03/28 03:41:36;;;;;;;2.40;1.90;;;2.40;99.90;;;;;;4999115;28;20930;-78
2021/03/28 03:44:28;;;;;;;5.53;2.00;;;2.40;99.90;;;;;;4998115;28;20755;-78
2021/03/28 03:47:12;;;;;;;2.37;1.37;;;2.40;99.90;;;;;;4976357;28;20212;-78
2021/03/28 03:49:57;;;;;;;3.13;1.70;;;2.30;99.90;;;;;;4977653;28;20407;-78
2021/03/28 03:52:48;;;;;;;2.23;1.50;;;2.30;99.90;;;;;;4977369;28;20475;-78
2021/03/28 03:55:42;;;;;;;3.53;1.80;;;2.20;99.90;;;;;;4977130;28;20447;-78
2021/03/28 03:58:23;;;;;;;6.00;1.37;;;2.10;99.90;;;;;;4977536;28;20933;-78
2021/03/28 04:00:56;;;;;;;2.23;1.53;;;2.10;99.90;;;;;;4984133;28;20418;-78
2021/03/28 04:03:25;;;;;;;3.13;1.67;;;2.00;99.90;;;;;;4997168;28;20414;-78
2021/03/28 04:06:22;;;;;;;3.33;1.70;;;2.00;99.90;;;;;;4996787;28;20438;-78
2021/03/28 04:09:20;;;;;;;3.83;1.57;;;1.90;99.90;;;;;;4996987;28;20805;-78
2021/03/28 04:12:00;;;;;;;1.60;1.20;;;1.80;99.90;;;;;;4998492;28;20443;-78
2021/03/28 04:14:47;;;;;;;3.83;1.70;;;1.80;99.90;;;;;;5001866;28;20398;-78
2021/03/28 04:17:28;;;;;;;6.03;1.27;;;1.70;99.90;;;;;;5002826;28;20402;-78
2021/03/28 04:20:00;;;;;;;4.53;1.93;;;1.70;99.90;;;;;;5001728;28;20410;-78
2021/03/28 04:23:03;;;;;;;1.73;1.40;;;1.70;99.90;;;;;;5000837;28;20414;-78
2021/03/28 04:25:57;;;;;;;2.83;1.30;;;1.60;99.90;;;;;;5000689;28;20449;-78
2021/03/28 04:28:31;;;;;;;1.93;1.40;;;1.60;99.90;;;;;;5001090;28;20487;-78
2021/03/28 04:30:57;;;;;;;3.97;1.60;;;1.60;99.90;;;;;;5001984;28;20528;-78
2021/03/28 04:33:49;;;;;;;2.13;1.30;;;1.60;99.90;;;;;;5002627;28;20445;-78
2021/03/28 04:36:52;;;;;;;2.13;1.20;;;1.50;99.90;;;;;;5000769;28;20195;-78
2021/03/28 04:39:48;;;;;;;1.37;1.20;;;1.40;99.90;;;;;;5002319;28;20402;-78
2021/03/28 04:42:33;;;;;;;4.43;1.50;;;1.40;99.90;;;;;;5002285;28;20418;-78
2021/03/28 04:45:17;;;;;;;2.73;1.53;;;1.30;99.90;;;;;;5000915;28;20971;-78
2021/03/28 04:48:03;;;;;;;3.87;1.40;;;1.30;99.90;;;;;;5002746;28;20395;-78
2021/03/28 04:51:00;;;;;;;2.20;1.43;;;1.30;99.90;;;;;;5001975;28;20782;-78
2021/03/28 04:53:47;;;;;;;3.03;1.63;;;1.20;99.90;;;;;;5000740;28;20925;-78
2021/03/28 04:56:28;;;;;;;3.07;1.33;;;1.20;99.90;;;;;;5000155;28;20547;-78
2021/03/28 04:59:18;;;;;;;5.67;1.43;;;1.20;99.90;;;;;;5002204;28;20720;-78
2021/03/28 05:02:15;;;;;;;1.93;1.37;;;1.10;99.90;;;;;;4981321;28;20462;-78
2021/03/28 05:04:55;;;;;;;3.87;1.70;;;1.10;99.90;;;;;;4955157;28;20779;-79
2021/03/28 05:07:49;;;;;;;3.03;1.13;;;1.10;99.90;;;;;;4983187;28;20427;-78
2021/03/28 05:10:24;;;;;;;1.70;1.40;;;1.10;99.90;;;;;;4960422;28;20422;-78
2021/03/28 05:13:08;;;;;;;4.67;1.60;;;1.10;99.90;;;;;;5000596;28;20446;-78
2021/03/28 05:15:55;;;;;;;2.93;1.23;;;1.10;99.90;;;;;;5001722;28;20433;-78
2021/03/28 05:18:23;;;;;;;3.23;1.97;;;1.00;99.90;;;;;;5002041;28;20513;-78
2021/03/28 05:21:27;;;;;;;2.47;1.33;;;1.10;99.90;;;;;;5001456;28;20418;-78
2021/03/28 05:23:52;;;;;;;4.60;1.50;;;1.00;99.90;;;;;;4999180;28;20414;-78
2021/03/28 05:26:33;;;;;;;2.17;1.40;;;1.00;99.90;;;;;;4999847;28;21017;-78
2021/03/28 05:29:21;;;;;;;1.73;1.20;;;1.00;99.90;;;;;;5000795;28;20166;-78
2021/03/28 05:32:06;;;;;;;3.27;1.50;;;1.00;99.90;;;;;;5001914;28;21018;-78
2021/03/28 05:35:09;;;;;;;1.77;1.23;;;1.10;99.90;;;;;;4999988;28;20406;-78
2021/03/28 05:37:49;;;;;;;7.03;1.63;;;1.10;99.90;;;;;;5001583;28;20438;-78
2021/03/28 05:40:32;;;;;;;4.90;1.67;;;1.10;99.90;;;;;;5002627;28;20411;-78
2021/03/28 05:43:09;;;;;;;2.37;1.50;;;1.10;99.90;;;;;;5003872;28;20415;-78
2021/03/28 05:45:35;;;;;;;4.03;1.60;;;1.20;99.90;;;;;;5000662;28;20442;-78
2021/03/28 05:48:26;;;;;;;3.00;1.30;;;1.20;99.90;;;;;;5002619;28;20434;-78
2021/03/28 05:51:16;;;;;;;2.03;1.57;;;1.20;99.90;;;;;;5002480;28;20712;-78
2021/03/28 05:54:12;;;;;;;2.83;1.73;;;1.20;99.90;;;;;;5002807;28;20422;-78
2021/03/28 05:57:18;;;;;;;2.50;1.60;;;1.20;99.90;;;;;;4999568;28;20458;-78
2021/03/28 06:00:05;;;;;;;5.23;1.43;;;1.30;99.90;;;;;;4996242;28;20477;-77
2021/03/28 06:03:08;;;;;;;2.50;1.53;;;1.40;99.90;;;;;;5000724;28;20415;-78
2021/03/28 06:06:04;;;;;;;4.37;1.40;;;1.40;99.90;;;;;;4999255;28;20430;-78
2021/03/28 06:08:49;;;;;;;1.83;1.17;;;1.40;99.90;;;;;;4996922;28;20422;-78
2021/03/28 06:11:39;;;;;;;2.07;1.30;;;1.50;99.90;;;;;;4999550;28;20537;-78
2021/03/28 06:14:23;;;;;;;4.50;1.57;;;1.40;99.90;;;;;;5000051;28;20402;-78
2021/03/28 06:16:57;;;;;;;5.60;1.73;;;1.50;99.90;;;;;;5002017;28;20426;-78
2021/03/28 06:19:44;;;;;;;2.50;1.43;;;1.60;99.90;;;;;;5002431;28;20448;-79
2021/03/28 06:22:28;;;;;;;2.53;1.80;;;1.70;99.90;;;;;;5005160;28;20796;-78
2021/03/28 06:25:03;;;;;;;1.90;1.60;;;1.90;99.90;;;;;;5009187;28;20415;-78
2021/03/28 06:27:52;;;;;;;3.70;1.80;;;2.00;99.90;;;;;;5008822;28;20406;-79
2021/03/28 06:30:55;;;;;;;4.70;1.40;;;2.10;99.90;;;;;;5000579;28;20418;-78
2021/03/28 06:33:44;;;;;;;1.83;1.70;;;2.20;99.90;;;;;;4997657;28;20422;-79
2021/03/28 06:36:34;;;;;;;5.37;1.53;;;2.30;99.90;;;;;;4998147;28;20443;-77
2021/03/28 06:39:15;;;;;;;3.43;1.57;;;2.30;99.90;;;;;;4997323;28;20477;-78
2021/03/28 06:42:10;;;;;;;1.30;1.20;;;2.40;99.90;;;;;;4997328;28;20911;-78
2021/03/28 06:44:56;;;;;;;3.90;1.80;;;2.50;99.90;;;;;;4998216;28;20565;-78
2021/03/28 06:47:38;;;;;;;4.30;1.60;;;2.50;99.90;;;;;;4998736;28;20418;-78
2021/03/28 06:50:41;;;;;;;5.57;2.07;;;2.50;99.90;;;;;;4999613;28;20429;-78
2021/03/28 06:53:41;;;;;;;2.17;1.80;;;2.70;99.90;;;;;;5000684;28;20422;-79
2021/03/28 06:56:30;;;;;;;4.50;2.30;;;2.80;99.90;;;;;;4997610;28;20816;-77
2021/03/28 06:59:14;;;;;;;3.30;2.07;;;3.00;99.90;;;;;;4995345;28;20803;-78
2021/03/28 07:01:55;;;;;;;6.17;2.40;;;3.20;99.90;;;;;;4981436;28;20384;-78
2021/03/28 07:04:59;;;;;;;3.43;1.97;;;3.40;99.90;;;;;;4979349;28;20776;-78
2021/03/28 07:07:54;;;;;;;2.80;1.50;;;3.60;99.90;;;;;;4978623;28;20510;-78
2021/03/28 07:10:23;;;;;;;3.73;1.67;;;3.80;99.90;;;;;;4995845;28;20160;-78
2021/03/28 07:13:16;;;;;;;4.10;1.83;;;4.00;99.90;;;;;;4999554;28;20435;-78
2021/03/28 07:16:01;;;;;;;3.80;1.83;;;4.30;99.90;;;;;;5000778;28;20433;-78
2021/03/28 07:18:55;;;;;;;3.87;1.50;;;4.50;99.90;;;;;;4996622;28;20783;-78
2021/03/28 07:22:10;;;;;;;7.27;2.50;;;4.80;99.90;;;;;;4959167;28;20188;-79
2021/03/28 07:24:57;;;;;;;5.97;2.13;;;5.00;99.90;;;;;;4980529;28;20456;-78
2021/03/28 07:27:42;;;;;;;5.70;1.80;;;5.40;99.90;;;;;;4982806;28;20158;-80
2021/03/28 07:30:29;;;;;;;4.83;1.70;;;5.80;99.90;;;;;;5000321;28;20172;-78
2021/03/28 07:33:25;;;;;;;2.70;2.07;;;6.00;99.90;;;;;;5000469;28;20179;-78
2021/03/28 07:36:28;;;;;;;2.00;1.60;;;6.00;99.90;;;;;;4996182;28;20199;-78
2021/03/28 07:39:31;;;;;;;3.53;1.70;;;6.30;99.90;;;;;;4981617;28;20259;-79
2021/03/28 07:42:08;;;;;;;5.53;1.90;;;6.80;99.90;;;;;;4976581;28;20539;-80
2021/03/28 07:45:27;;;;;;;3.73;1.90;;;7.70;99.90;;;;;;4985759;28;20185;-77
2021/03/28 07:48:23;;;;;;;4.83;1.80;;;8.10;99.90;;;;;;4963216;28;20200;-77
2021/03/28 07:51:27;;;;;;;2.50;1.53;;;8.20;99.90;;;;;;4994542;28;20292;-77
2021/03/28 07:54:31;;;;;;;3.63;1.63;;;8.80;99.90;;;;;;4994643;28;20228;-77
2021/03/28 07:57:26;;;;;;;2.70;1.50;;;9.60;99.90;;;;;;4994222;28;20244;-77
2021/03/28 08:00:09;;;;;;;3.70;1.50;;;10.40;97.60;;;;;;4993705;28;20174;-78
2021/03/28 08:02:35;;;;;;;3.20;1.60;;;10.50;95.20;;;;;;4997015;28;20175;-79
2021/03/28 08:05:26;;;;;;;3.57;1.90;;;10.70;92.90;;;;;;4998579;28;20183;-79
2021/03/28 08:08:17;;;;;;;5.33;1.77;;;10.70;92.30;;;;;;5001419;28;20172;-79
2021/03/28 08:11:23;;;;;;;3.53;1.40;;;11.10;88.50;;;;;;5000145;28;20199;-79
2021/03/28 08:14:24;;;;;;;1.90;1.23;;;11.00;87.40;;;;;;4997527;28;20206;-78
2021/03/28 08:17:05;;;;;;;4.53;2.20;;;10.90;83.90;;;;;;4996083;28;20238;-79
2021/03/28 08:19:54;;;;;;;21.10;10.87;;;10.40;83.80;;;;;;4997580;28;20590;-79
2021/03/28 08:22:38;;;;;;;12.27;6.20;;;10.60;83.40;;;;;;4997887;28;20179;-79
2021/03/28 08:25:40;;;;;;;14.83;6.23;;;10.80;79.30;;;;;;4998687;28;20191;-79
2021/03/28 08:28:37;;;;;;;5.97;2.43;;;11.20;76.70;;;;;;4998705;28;20164;-77
2021/03/28 08:31:27;;;;;;;2.53;1.43;;;11.70;79.60;;;;;;4998697;28;20211;-78
2021/03/28 08:34:34;;;;;;;3.07;1.50;;;11.90;75.90;;;;;;4997368;28;20175;-77
2021/03/28 08:37:21;;;;;;;3.23;1.27;;;12.80;77.70;;;;;;4997489;28;20641;-78
2021/03/28 08:40:08;;;;;;;2.53;1.00;;;13.00;71.60;;;;;;4995978;28;20180;-78
2021/03/28 08:42:55;;;;;;;3.40;1.60;;;12.90;72.50;;;;;;4999941;28;20172;-79
2021/03/28 08:45:27;;;;;;;4.23;1.00;;;12.60;71.00;;;;;;4997271;28;20234;-77
2021/03/28 08:48:14;;;;;;;4.13;1.53;;;12.30;70.00;;;;;;4999863;28;20199;-78
2021/03/28 08:50:50;;;;;;;4.70;1.30;;;12.20;69.30;;;;;;4995523;28;20294;-77
2021/03/28 08:53:47;;;;;;;5.90;1.30;;;12.30;69.20;;;;;;4991514;28;20168;-78
2021/03/28 08:56:29;;;;;;;3.07;1.37;;;12.00;69.50;;;;;;4977539;28;20216;-79
2021/03/28 08:59:00;;;;;;;5.00;1.37;;;12.00;68.60;;;;;;4992329;28;20180;-79
2021/03/28 09:01:47;;;;;;;3.13;1.40;;;11.80;70.30;;;;;;5000855;28;20179;-79
2021/03/28 09:04:46;;;;;;;1.83;1.00;;;11.80;70.10;;;;;;5000932;28;20192;-79
2021/03/28 09:07:33;;;;;;;2.60;1.10;;;12.10;74.70;;;;;;5002329;28;20267;-78
2021/03/28 09:10:04;;;;;;;2.00;1.03;;;12.60;69.40;;;;;;4998705;28;20176;-78
2021/03/28 09:13:22;;;;;;;3.13;1.37;;;12.10;65.40;;;;;;4997595;28;20684;-77
2021/03/28 09:15:56;;;;;;;3.50;1.30;;;11.70;68.80;;;;;;4986950;28;20213;-77
2021/03/28 09:18:56;;;;;;;3.20;1.27;;;11.70;66.90;;;;;;4995957;28;20584;-77
2021/03/28 09:21:36;;;;;;;4.47;1.30;;;11.40;66.20;;;;;;4976536;28;20658;-77
2021/03/28 09:24:24;;;;;;;4.00;1.27;;;11.40;68.30;;;;;;5000271;28;20201;-78
2021/03/28 09:27:11;;;;;;;2.93;1.27;;;11.60;67.80;;;;;;4999322;28;20221;-77
2021/03/28 09:29:58;;;;;;;2.70;1.07;;;11.50;67.00;;;;;;5004043;28;20174;-78
2021/03/28 09:32:42;;;;;;;5.07;1.50;;;11.40;68.00;;;;;;5001587;28;20203;-78
2021/03/28 09:35:33;;;;;;;3.43;1.30;;;11.80;71.60;;;;;;4996598;28;20199;-77
2021/03/28 09:38:36;;;;;;;6.67;1.60;;;12.20;66.80;;;;;;4998014;28;20641;-78
2021/03/28 09:41:07;;;;;;;4.17;1.30;;;12.00;64.90;;;;;;4997572;28;20185;-79
2021/03/28 09:44:00;;;;;;;3.07;1.07;;;11.60;63.20;;;;;;5001302;28;20182;-79
2021/03/28 09:46:40;;;;;;;3.03;1.00;;;11.00;65.90;;;;;;4982865;28;20220;-79
2021/03/28 09:49:24;;;;;;;4.30;1.40;;;11.20;67.50;;;;;;4999203;28;20181;-78
2021/03/28 09:52:29;;;;;;;3.23;1.13;;;11.10;66.20;;;;;;4997603;28;20208;-78
2021/03/28 09:55:32;;;;;;;2.30;1.03;;;11.70;66.90;;;;;;4998794;28;20165;-78
2021/03/28 09:58:01;;;;;;;3.00;1.20;;;12.50;69.00;;;;;;4997915;28;20197;-79
2021/03/28 10:00:52;;;;;;;3.87;1.70;;;13.20;65.60;;;;;;4995372;28;20175;-78
2021/03/28 10:03:35;;;;;;;4.17;1.27;;;13.20;63.30;;;;;;4995826;28;20213;-78
2021/03/28 10:06:11;;;;;;;2.00;1.07;;;13.20;65.20;;;;;;4994770;28;20195;-77
2021/03/28 10:08:44;;;;;;;3.40;1.10;;;13.50;63.60;;;;;;4994854;28;20254;-75
2021/03/28 10:11:27;;;;;;;2.73;1.27;;;13.60;64.30;;;;;;4995150;28;20665;-77
2021/03/28 10:14:17;;;;;;;3.23;1.20;;;13.60;61.70;;;;;;4996648;28;20167;-76
2021/03/28 10:17:24;;;;;;;2.87;1.30;;;13.20;64.00;;;;;;4996399;28;20227;-76
2021/03/28 10:19:54;;;;;;;2.40;1.20;;;13.40;62.60;;;;;;4975315;28;20629;-79
2021/03/28 10:22:36;;;;;;;3.37;1.30;;;13.60;59.70;;;;;;4998722;28;20596;-78
2021/03/28 10:25:27;;;;;;;2.83;1.20;;;13.90;67.10;;;;;;4994776;28;20633;-77
2021/03/28 10:28:14;;;;;;;2.60;1.20;;;14.30;64.20;;;;;;4997315;28;20176;-77
2021/03/28 10:30:53;;;;;;;2.60;1.53;;;14.80;63.40;;;;;;5000178;28;20210;-77
2021/03/28 10:33:30;;;;;;;3.57;1.67;;;15.30;66.60;;;;;;5000019;28;20262;-78
2021/03/28 10:36:28;;;;;;;3.70;1.70;;;15.60;61.50;;;;;;5000564;28;20199;-77
2021/03/28 10:39:12;;;;;;;4.00;1.50;;;15.90;59.40;;;;;;4999695;28;20173;-78
2021/03/28 10:41:46;;;;;;;3.90;1.47;;;15.90;57.70;;;;;;5000214;28;20650;-78
2021/03/28 10:44:36;;;;;;;2.60;1.50;;;15.60;58.20;;;;;;5001243;28;20175;-77
2021/03/28 10:47:24;;;;;;;2.80;1.40;;;15.20;59.10;;;;;;5000030;28;20196;-78
2021/03/28 10:50:35;;;;;;;3.97;1.50;;;14.90;58.50;;;;;;4982368;28;20173;-78
2021/03/28 10:53:20;;;;;;;3.20;1.30;;;15.50;62.80;;;;;;4915726;29;21881;-78
2021/03/28 10:56:19;;;;;;;3.50;1.67;;;15.90;62.10;;;;;;5004184;28;20552;-80
2021/03/28 10:58:51;;;;;;;5.50;1.70;;;16.10;64.30;;;;;;4996382;28;20690;-78
2021/03/28 11:01:54;;;;;;;1.80;1.17;;;16.40;58.10;;;;;;4985012;28;20247;-78
2021/03/28 11:04:20;;;;;;;2.90;1.13;;;16.30;54.90;;;;;;4979033;28;20202;-78
2021/03/28 11:07:07;;;;;;;3.87;1.67;;;15.60;54.40;;;;;;4978964;28;20200;-78
2021/03/28 11:09:48;;;;;;;3.60;1.60;;;15.50;56.60;;;;;;4977355;28;20196;-77
2021/03/28 11:12:38;;;;;;;3.03;1.30;;;16.00;55.80;;;;;;4974720;28;20270;-77
2021/03/28 11:15:25;;;;;;;5.90;2.10;;;16.00;54.30;;;;;;4990262;28;20178;-77
2021/03/28 11:18:28;;;;;;;4.60;1.80;;;16.30;56.10;;;;;;4978119;28;20172;-77
2021/03/28 11:21:07;;;;;;;2.43;1.37;;;16.90;52.90;;;;;;4976931;28;20178;-76
2021/03/28 11:23:43;;;;;;;3.77;1.40;;;17.30;54.60;;;;;;4979615;28;20167;-78
2021/03/28 11:26:32;;;;;;;2.23;1.40;;;17.60;56.10;;;;;;4928697;28;20234;-77
2021/03/28 11:29:15;;;;;;;2.63;1.40;;;17.50;54.70;;;;;;4976327;28;20161;-78
2021/03/28 11:32:35;;;;;;;2.10;1.40;;;17.40;54.20;;;;;;4980693;28;20195;-77
2021/03/28 11:35:01;;;;;;;3.80;1.40;;;18.30;54.80;;;;;;4958033;28;20191;-76
2021/03/28 11:37:48;;;;;;;2.07;1.47;;;18.50;54.10;;;;;;4992031;28;20608;-77
2021/03/28 11:40:17;;;;;;;2.43;1.13;;;18.30;51.50;;;;;;4984328;28;20192;-77
2021/03/28 11:42:47;;;;;;;3.53;1.40;;;18.60;55.00;;;;;;4973270;28;20653;-76
2021/03/28 11:45:45;;;;;;;2.13;1.23;;;18.80;52.30;;;;;;4973621;28;20200;-78
2021/03/28 11:48:46;;;;;;;2.20;1.23;;;18.30;48.50;;;;;;4975063;28;20165;-77
2021/03/28 11:51:33;;;;;;;2.67;1.30;;;17.60;48.90;;;;;;4987958;28;20552;-76
2021/03/28 11:54:11;;;;;;;2.37;1.20;;;17.40;51.10;;;;;;4974945;28;20164;-76
2021/03/28 11:56:54;;;;;;;2.33;1.40;;;17.70;52.90;;;;;;4974629;28;20259;-76
2021/03/28 11:59:22;;;;;;;2.80;1.40;;;17.70;55.80;;;;;;4975675;28;20205;-77
2021/03/28 12:04:30;;;;;;;2.87;1.20;;;19.50;53.70;;;;;;4975294;28;20675;-77
2021/03/28 12:07:18;;;;;;;3.63;1.30;;;20.00;49.30;;;;;;4977630;28;20686;-77
2021/03/28 12:10:10;;;;;;;3.80;1.30;;;19.40;46.80;;;;;;4993270;28;20517;-77
2021/03/28 12:12:48;;;;;;;1.83;1.30;;;19.00;47.20;;;;;;4974646;28;20231;-76
2021/03/28 12:15:44;;;;;;;6.17;1.77;;;18.80;47.80;;;;;;4994461;28;20218;-77
2021/03/28 12:18:22;;;;;;;2.73;1.60;;;19.60;47.60;;;;;;4993038;28;20177;-77
2021/03/28 12:21:03;;;;;;;3.43;1.40;;;20.20;45.40;;;;;;4992704;28;20188;-76
2021/03/28 12:23:41;;;;;;;2.53;1.17;;;20.10;43.60;;;;;;4994256;28;20159;-75
2021/03/28 12:26:25;;;;;;;2.57;1.30;;;18.60;42.50;;;;;;4993857;28;20188;-76
2021/03/28 12:28:56;;;;;;;3.63;1.40;;;18.50;45.20;;;;;;4993939;28;20170;-75
2021/03/28 12:31:50;;;;;;;3.23;1.37;;;19.10;45.90;;;;;;4994019;28;20186;-76
2021/03/28 12:34:28;;;;;;;1.93;1.37;;;19.80;46.40;;;;;;4996831;28;20204;-76
2021/03/28 12:36:56;;;;;;;2.77;1.40;;;20.20;47.50;;;;;;4996829;28;20290;-76
2021/03/28 12:39:33;;;;;;;4.57;1.30;;;20.40;45.30;;;;;;4996633;28;20178;-76
2021/03/28 12:42:01;;;;;;;3.93;1.53;;;20.60;46.60;;;;;;4998163;28;20172;-76
2021/03/28 12:44:38;;;;;;;2.77;1.40;;;20.30;42.40;;;;;;4996339;28;20188;-75
2021/03/28 12:47:22;;;;;;;3.37;1.20;;;19.30;41.20;;;;;;4997785;28;20220;-75
2021/03/28 12:49:54;;;;;;;3.03;1.63;;;19.50;44.80;;;;;;4997832;28;20555;-74
2021/03/28 12:52:26;;;;;;;4.83;1.50;;;19.50;42.70;;;;;;4997559;28;20206;-74
2021/03/28 12:54:54;;;;;;;4.13;1.73;;;19.50;41.70;;;;;;4997326;28;20164;-75
2021/03/28 12:57:39;;;;;;;4.03;1.20;;;19.70;44.40;;;;;;4997438;28;20194;-75
2021/03/28 13:00:19;;;;;;;3.60;1.33;;;20.10;42.10;;;;;;4997817;28;20168;-75
2021/03/28 13:02:48;;;;;;;4.23;1.50;;;20.30;45.10;;;;;;4996242;28;20209;-75
2021/03/28 13:05:16;;;;;;;3.90;1.50;;;20.50;43.40;;;;;;4997190;28;20190;-75
2021/03/28 13:07:43;;;;;;;2.67;1.20;;;20.50;43.30;;;;;;4997594;28;20182;-76
2021/03/28 13:10:20;;;;;;;3.57;1.50;;;20.30;44.00;;;;;;4997292;28;20173;-75
2021/03/28 13:13:11;;;;;;;2.37;1.50;;;20.10;42.90;;;;;;4997142;28;20196;-75
2021/03/28 13:15:56;;;;;;;3.73;1.47;;;20.30;44.70;;;;;;4994349;28;20193;-75
2021/03/28 13:18:22;;;;;;;2.77;1.43;;;21.40;44.70;;;;;;4976644;28;20237;-75
2021/03/28 13:20:50;;;;;;;3.20;1.50;;;21.70;41.30;;;;;;4977546;28;20180;-75
2021/03/28 13:23:18;;;;;;;1.60;1.00;;;21.90;42.70;;;;;;4977592;28;20194;-76
2021/03/28 13:25:44;;;;;;;1.90;1.37;;;22.30;40.80;;;;;;4977537;28;20718;-75
2021/03/28 13:28:15;;;;;;;3.63;1.93;;;21.90;41.80;;;;;;4977205;28;20663;-75
2021/03/28 13:30:44;;;;;;;4.23;1.20;;;21.70;41.40;;;;;;4977993;28;20259;-75
2021/03/28 13:33:39;;;;;;;2.30;1.10;;;22.10;39.70;;;;;;4977323;28;20713;-75
2021/03/28 13:36:29;;;;;;;2.87;1.20;;;21.20;38.50;;;;;;4960565;28;20338;-75
2021/03/28 13:39:06;;;;;;;3.50;1.43;;;20.60;39.20;;;;;;4977531;28;20168;-75
2021/03/28 13:41:58;;;;;;;2.33;1.00;;;20.70;43.40;;;;;;4977179;28;20171;-75
2021/03/28 13:44:31;;;;;;;2.60;1.33;;;21.20;41.10;;;;;;4972594;28;20253;-75
2021/03/28 13:47:04;;;;;;;3.13;1.17;;;21.00;38.70;;;;;;4977327;28;20287;-76
2021/03/28 13:49:43;;;;;;;4.57;1.27;;;20.30;39.50;;;;;;4975733;28;20178;-76
2021/03/28 13:52:24;;;;;;;2.83;1.40;;;20.60;39.40;;;;;;4977109;28;20213;-75
2021/03/28 13:55:26;;;;;;;2.97;1.30;;;21.00;40.40;;;;;;4977193;28;20159;-76
2021/03/28 13:57:53;;;;;;;1.97;1.43;;;21.30;39.50;;;;;;4975818;28;20313;-75
2021/03/28 14:00:35;;;;;;;4.77;1.70;;;21.70;39.40;;;;;;4975964;28;20180;-77
2021/03/28 14:03:18;;;;;;;2.70;1.40;;;21.60;38.70;;;;;;4975658;28;20649;-76
2021/03/28 14:05:47;;;;;;;1.63;1.20;;;21.00;36.90;;;;;;4976652;28;20665;-76
2021/03/28 14:08:19;;;;;;;2.30;1.30;;;20.50;38.80;;;;;;4976887;28;20167;-76
2021/03/28 14:10:59;;;;;;;3.97;1.40;;;20.50;37.30;;;;;;4976626;28;20658;-76
2021/03/28 14:13:33;;;;;;;2.10;1.40;;;20.90;38.40;;;;;;4977214;28;20225;-77
2021/03/28 14:16:01;;;;;;;2.80;1.33;;;20.60;38.00;;;;;;4976636;28;20654;-76
2021/03/28 14:18:43;;;;;;;2.83;1.40;;;21.40;39.40;;;;;;4976971;28;20171;-77
2021/03/28 14:21:32;;;;;;;3.03;1.90;;;21.90;35.80;;;;;;4976865;28;20155;-77
2021/03/28 14:24:07;;;;;;;2.33;1.30;;;21.60;36.30;;;;;;4986306;28;20168;-76
2021/03/28 14:26:59;;;;;;;4.00;1.70;;;21.50;34.80;;;;;;4996522;28;20197;-76
2021/03/28 14:29:47;;;;;;;2.23;1.43;;;20.80;33.30;;;;;;4996455;28;20218;-77